Time;durP1;ratioP1;P1;durP2;ratioP2;P2;SDS_P1;SDS_P2;PMS_P1;PMS_P2;Temp;Humidity;BMP_temperature;BMP_pressure;BME280_temperature;BME280_humidity;BME280_pressure;Samples;Min_cycle;Max_cycle;Signal;HPM_P1;HPM_P2
2022/07/09 00:01:47;;;;;;;2.30;2.10;;;;;;;16.74;91.94;97187.91;5040050;28;20253;-78
2022/07/09 00:04:15;;;;;;;2.57;2.37;;;;;;;16.76;91.94;97190.41;5046942;28;20224;-78
2022/07/09 00:06:42;;;;;;;3.60;2.10;;;;;;;16.80;91.54;97188.81;5037326;28;20211;-78
2022/07/09 00:09:09;;;;;;;2.20;2.00;;;;;;;16.79;91.38;97184.41;5045926;28;20225;-78
2022/07/09 00:11:36;;;;;;;4.60;2.20;;;;;;;16.76;91.47;97185.72;5042084;28;20210;-78
2022/07/09 00:14:03;;;;;;;2.57;2.20;;;;;;;16.74;93.61;97185.19;5039565;28;20289;-78
2022/07/09 00:16:31;;;;;;;3.40;2.07;;;;;;;16.63;93.49;97191.53;5041053;28;20212;-78
2022/07/09 00:18:58;;;;;;;2.50;2.13;;;;;;;16.55;95.94;97187.28;5050343;28;20221;-78
2022/07/09 00:21:25;;;;;;;2.60;2.03;;;;;;;16.54;95.35;97180.19;5045985;28;20206;-77
2022/07/09 00:23:52;;;;;;;2.53;2.23;;;;;;;16.67;94.46;97189.16;5041507;28;20232;-78
2022/07/09 00:26:19;;;;;;;4.07;1.97;;;;;;;16.62;93.98;97190.72;5035236;28;20245;-78
2022/07/09 00:28:46;;;;;;;2.40;2.10;;;;;;;16.56;94.12;97197.13;5039334;28;20253;-77
2022/07/09 00:31:13;;;;;;;2.30;2.00;;;;;;;16.57;95.54;97195.22;5039491;28;20254;-77
2022/07/09 00:33:42;;;;;;;2.27;2.00;;;;;;;16.59;95.31;97203.97;5043628;28;20220;-78
2022/07/09 00:36:09;;;;;;;4.37;2.00;;;;;;;16.64;94.34;97204.94;5040288;28;20217;-78
2022/07/09 00:38:36;;;;;;;2.50;2.30;;;;;;;16.74;94.15;97203.44;5035342;28;20198;-78
2022/07/09 00:41:03;;;;;;;3.63;2.40;;;;;;;16.80;93.24;97202.44;5035858;28;20202;-78
2022/07/09 00:43:30;;;;;;;2.40;2.20;;;;;;;16.81;92.94;97204.91;5044965;28;20271;-78
2022/07/09 00:45:57;;;;;;;4.10;2.30;;;;;;;16.82;92.66;97200.28;5045919;28;20205;-78
2022/07/09 00:48:25;;;;;;;2.53;1.97;;;;;;;16.75;93.83;97196.91;5038678;28;20205;-77
2022/07/09 00:50:55;;;;;;;4.37;2.17;;;;;;;16.67;94.72;97200.06;5034090;28;20272;-78
2022/07/09 00:53:26;;;;;;;4.30;2.20;;;;;;;16.63;95.23;97200.53;5043381;28;20210;-77
2022/07/09 00:55:54;;;;;;;2.63;2.27;;;;;;;16.58;95.48;97197.72;5040051;28;20242;-78
2022/07/09 00:58:22;;;;;;;2.50;2.30;;;;;;;16.61;95.77;97204.59;5041074;28;20217;-77
2022/07/09 01:00:50;;;;;;;2.30;2.10;;;;;;;16.60;96.46;97197.44;5046809;28;20292;-78
2022/07/09 01:03:17;;;;;;;3.07;2.60;;;;;;;16.55;97.69;97211.84;5052423;28;20217;-77
2022/07/09 01:05:45;;;;;;;3.10;2.30;;;;;;;16.43;97.71;97194.72;5037982;28;20198;-78
2022/07/09 01:08:13;;;;;;;2.57;2.20;;;;;;;16.42;98.19;97201.22;5034946;28;20207;-77
2022/07/09 01:10:41;;;;;;;2.60;2.40;;;;;;;16.35;98.25;97200.56;5041665;28;20225;-78
2022/07/09 01:13:08;;;;;;;3.47;2.40;;;;;;;16.33;98.57;97212.81;5043229;28;20542;-78
2022/07/09 01:15:35;;;;;;;2.63;2.00;;;;;;;16.35;98.21;97211.47;5041371;28;20206;-78
2022/07/09 01:18:02;;;;;;;4.17;2.70;;;;;;;16.35;98.04;97208.75;5042845;28;20198;-78
2022/07/09 01:20:32;;;;;;;2.77;2.47;;;;;;;16.39;97.84;97218.09;5052422;28;20196;-78
2022/07/09 01:23:00;;;;;;;3.27;2.30;;;;;;;16.28;97.75;97216.25;5037658;28;20293;-78
2022/07/09 01:25:34;;;;;;;2.20;2.00;;;;;;;16.24;98.33;97215.09;5040787;28;20202;-77
2022/07/09 01:28:02;;;;;;;2.93;2.30;;;;;;;16.09;98.87;97212.06;5048050;28;20241;-78
2022/07/09 01:30:29;;;;;;;4.60;2.30;;;;;;;16.05;99.26;97205.47;5041540;28;20286;-78
2022/07/09 01:32:56;;;;;;;2.73;2.37;;;;;;;16.06;99.45;97207.13;5044706;28;20210;-78
2022/07/09 01:35:23;;;;;;;2.67;2.47;;;;;;;16.01;99.38;97210.56;5048574;28;20270;-78
2022/07/09 01:37:52;;;;;;;4.57;2.37;;;;;;;16.00;100.00;97203.47;5038105;28;20210;-78
2022/07/09 01:40:19;;;;;;;3.07;2.40;;;;;;;15.97;99.82;97205.88;5029819;28;20209;-78
2022/07/09 01:42:48;;;;;;;3.03;2.40;;;;;;;15.85;100.00;97204.00;5041234;28;20324;-77
2022/07/09 01:45:16;;;;;;;2.80;2.60;;;;;;;15.79;100.00;97205.00;5042513;28;20210;-78
2022/07/09 01:47:43;;;;;;;4.07;2.73;;;;;;;15.70;100.00;97209.16;5039885;28;20215;-78
2022/07/09 01:50:10;;;;;;;2.73;2.33;;;;;;;15.63;100.00;97197.59;5040513;28;20223;-78
2022/07/09 01:52:39;;;;;;;2.50;2.30;;;;;;;15.47;100.00;97190.16;5051969;28;20225;-77
2022/07/09 01:55:08;;;;;;;3.07;2.67;;;;;;;15.39;100.00;97193.25;5047953;28;20211;-77
2022/07/09 01:57:35;;;;;;;3.73;2.50;;;;;;;15.32;100.00;97200.69;5049875;28;20249;-77
2022/07/09 02:00:03;;;;;;;3.60;2.40;;;;;;;15.19;100.00;97195.53;5047057;28;20203;-77
2022/07/09 02:02:39;;;;;;;3.60;2.50;;;;;;;15.18;100.00;97204.75;5041783;28;20206;-77
2022/07/09 02:05:07;;;;;;;3.03;2.63;;;;;;;15.27;100.00;97203.31;5044939;28;20234;-78
2022/07/09 02:07:34;;;;;;;2.60;2.40;;;;;;;15.33;100.00;97207.78;5046749;28;20208;-77
2022/07/09 02:10:01;;;;;;;4.03;2.43;;;;;;;15.36;100.00;97204.59;5047539;28;20230;-77
2022/07/09 02:12:29;;;;;;;2.93;2.43;;;;;;;15.34;100.00;97188.50;5048691;28;20218;-77
2022/07/09 02:14:56;;;;;;;2.80;2.43;;;;;;;15.36;100.00;97199.16;5046526;28;20206;-77
2022/07/09 02:17:23;;;;;;;3.10;2.63;;;;;;;15.21;100.00;97182.53;5035678;28;20333;-77
2022/07/09 02:19:51;;;;;;;4.87;2.83;;;;;;;15.20;100.00;97195.28;5045813;28;20423;-77
2022/07/09 02:22:18;;;;;;;4.17;2.63;;;;;;;15.10;100.00;97185.00;5044857;28;20201;-77
2022/07/09 02:24:45;;;;;;;3.90;2.60;;;;;;;15.14;100.00;97196.25;5041480;28;20231;-77
2022/07/09 02:27:12;;;;;;;2.97;2.60;;;;;;;15.12;100.00;97195.66;5049154;28;20304;-77
2022/07/09 02:29:40;;;;;;;4.13;2.50;;;;;;;15.17;100.00;97195.75;5041155;28;20234;-77
2022/07/09 02:32:10;;;;;;;2.83;2.50;;;;;;;15.10;100.00;97192.34;5040616;28;20210;-78
2022/07/09 02:34:37;;;;;;;5.00;2.77;;;;;;;15.00;100.00;97186.66;5036633;28;20211;-77
2022/07/09 02:37:04;;;;;;;5.93;3.23;;;;;;;14.96;100.00;97186.34;5040440;28;20234;-77
2022/07/09 02:39:31;;;;;;;3.20;2.63;;;;;;;14.76;100.00;97186.69;5037151;28;20217;-77
2022/07/09 02:41:59;;;;;;;2.80;2.60;;;;;;;14.65;100.00;97184.78;5046305;28;20202;-77
2022/07/09 02:44:26;;;;;;;4.53;2.80;;;;;;;14.59;100.00;97180.28;5036998;28;20225;-77
2022/07/09 02:46:55;;;;;;;3.30;2.70;;;;;;;14.71;100.00;97183.03;5044616;28;20237;-77
2022/07/09 02:49:23;;;;;;;3.43;2.50;;;;;;;14.80;100.00;97183.50;5039557;28;20246;-77
2022/07/09 02:51:51;;;;;;;3.63;2.90;;;;;;;14.82;100.00;97182.19;5042238;28;20233;-78
2022/07/09 02:54:18;;;;;;;3.03;2.40;;;;;;;14.94;100.00;97187.63;5041232;28;20214;-77
2022/07/09 02:56:45;;;;;;;2.93;2.60;;;;;;;14.86;100.00;97179.84;5033447;28;20226;-78
2022/07/09 02:59:12;;;;;;;3.50;2.60;;;;;;;14.80;100.00;97183.50;5041489;28;20213;-77
2022/07/09 03:01:39;;;;;;;3.00;2.60;;;;;;;14.80;100.00;97181.59;5036798;28;20211;-77
2022/07/09 03:04:08;;;;;;;4.60;2.90;;;;;;;14.77;100.00;97185.63;5039975;28;20301;-77
2022/07/09 03:06:35;;;;;;;3.03;2.50;;;;;;;14.77;100.00;97187.50;5036303;28;20217;-77
2022/07/09 03:09:02;;;;;;;4.67;2.70;;;;;;;14.70;100.00;97178.66;5042597;28;20207;-77
2022/07/09 03:11:29;;;;;;;5.43;2.90;;;;;;;14.74;100.00;97179.81;5036852;28;20222;-77
2022/07/09 03:13:56;;;;;;;3.30;2.77;;;;;;;14.84;100.00;97177.34;5041297;28;20199;-77
2022/07/09 03:16:23;;;;;;;4.97;2.50;;;;;;;14.84;100.00;97177.34;5040825;28;20274;-77
2022/07/09 03:18:50;;;;;;;2.67;2.47;;;;;;;14.84;100.00;97177.34;5042801;28;20215;-77
2022/07/09 03:21:18;;;;;;;3.10;2.80;;;;;;;14.90;100.00;97176.38;5035290;28;20206;-77
2022/07/09 03:23:45;;;;;;;3.90;2.50;;;;;;;14.90;100.00;97170.94;5053368;28;20249;-77
2022/07/09 03:26:12;;;;;;;3.23;2.63;;;;;;;14.88;100.00;97166.84;5041019;28;20217;-77
2022/07/09 03:28:40;;;;;;;4.33;2.47;;;;;;;14.88;100.00;97173.09;5039981;28;20219;-77
2022/07/09 03:31:06;;;;;;;3.23;2.40;;;;;;;14.86;100.00;97168.94;5043205;28;20218;-77
2022/07/09 03:33:34;;;;;;;2.80;2.53;;;;;;;14.85;100.00;97168.13;5039843;28;20229;-77
2022/07/09 03:36:01;;;;;;;2.67;2.33;;;;;;;14.96;100.00;97159.13;5054652;28;20207;-77
2022/07/09 03:38:29;;;;;;;3.30;2.50;;;;;;;15.00;100.00;97160.31;5039479;28;20217;-77
2022/07/09 03:40:56;;;;;;;2.70;2.50;;;;;;;15.04;100.00;97161.50;5036129;28;20199;-77
2022/07/09 03:43:23;;;;;;;3.07;2.60;;;;;;;15.05;100.00;97162.31;5035011;28;20206;-77
2022/07/09 03:45:50;;;;;;;4.97;2.53;;;;;;;15.05;100.00;97156.88;5036899;28;20203;-77
2022/07/09 03:48:18;;;;;;;5.00;2.63;;;;;;;15.02;100.00;97157.34;5035974;28;20542;-77
2022/07/09 03:50:45;;;;;;;2.30;2.10;;;;;;;15.05;100.00;97162.31;5034425;28;20279;-77
2022/07/09 03:53:12;;;;;;;2.67;2.40;;;;;;;15.00;100.00;97154.88;5037300;28;20293;-77
2022/07/09 03:55:40;;;;;;;2.40;2.20;;;;;;;14.98;100.00;97167.88;5038213;28;20219;-77
2022/07/09 03:58:07;;;;;;;3.47;2.43;;;;;;;15.01;100.00;97163.84;5037716;28;20215;-77
2022/07/09 04:00:34;;;;;;;2.90;2.60;;;;;;;15.05;100.00;97171.31;5038506;28;20211;-77
2022/07/09 04:03:01;;;;;;;2.70;2.50;;;;;;;15.10;100.00;97168.69;5039470;28;20253;-77
2022/07/09 04:05:28;;;;;;;2.30;2.10;;;;;;;15.17;100.00;97173.16;5029631;28;20218;-77
2022/07/09 04:07:56;;;;;;;4.00;2.30;;;;;;;15.20;100.00;97178.13;5037404;28;20297;-77
2022/07/09 04:10:23;;;;;;;4.80;2.30;;;;;;;15.19;100.00;97176.47;5033664;28;20238;-77
2022/07/09 04:12:51;;;;;;;4.87;2.60;;;;;;;15.18;100.00;97178.38;5038811;28;20233;-77
2022/07/09 04:15:18;;;;;;;4.57;2.80;;;;;;;15.05;100.00;97174.03;5039211;28;20207;-77
2022/07/09 04:17:46;;;;;;;2.40;2.20;;;;;;;14.98;100.00;97178.75;5036150;28;20206;-77
2022/07/09 04:20:13;;;;;;;2.90;2.60;;;;;;;14.98;100.00;97181.47;5035615;28;20198;-77
2022/07/09 04:22:40;;;;;;;2.60;2.40;;;;;;;15.03;100.00;97189.75;5037932;28;20268;-77
2022/07/09 04:25:07;;;;;;;3.30;2.37;;;;;;;15.01;100.00;97182.88;5034225;28;20202;-77
2022/07/09 04:27:35;;;;;;;4.13;2.40;;;;;;;14.98;100.00;97183.34;5034429;28;20326;-77
2022/07/09 04:30:05;;;;;;;2.33;2.13;;;;;;;15.00;100.00;97186.66;5037028;28;20245;-77
2022/07/09 04:32:32;;;;;;;2.47;2.20;;;;;;;15.01;100.00;97189.16;5036547;28;20230;-77
2022/07/09 04:34:59;;;;;;;4.00;2.60;;;;;;;14.99;100.00;97191.28;5044025;28;20211;-77
2022/07/09 04:37:27;;;;;;;2.70;2.50;;;;;;;15.00;100.00;97192.94;5038628;28;20210;-76
2022/07/09 04:39:54;;;;;;;3.43;2.47;;;;;;;15.02;100.00;97190.81;5029574;28;20256;-77
2022/07/09 04:42:21;;;;;;;4.93;2.63;;;;;;;15.07;100.00;97199.06;5029925;28;20237;-76
2022/07/09 04:44:48;;;;;;;3.10;2.70;;;;;;;15.08;100.00;97200.72;5032613;28;20222;-76
2022/07/09 04:47:17;;;;;;;4.57;2.80;;;;;;;15.09;100.00;97196.13;5037073;28;20210;-76
2022/07/09 04:49:44;;;;;;;3.20;2.90;;;;;;;15.05;100.00;97195.78;5041821;28;20202;-76
2022/07/09 04:52:11;;;;;;;2.93;2.67;;;;;;;15.06;100.00;97208.28;5037552;28;20325;-76
2022/07/09 04:54:38;;;;;;;5.40;2.80;;;;;;;15.03;100.00;97205.25;5029520;28;20202;-76
2022/07/09 04:57:06;;;;;;;3.50;2.50;;;;;;;15.08;100.00;97210.78;5035446;28;20230;-76
2022/07/09 04:59:33;;;;;;;2.83;2.50;;;;;;;15.09;100.00;97204.28;5031050;28;20264;-76
2022/07/09 05:02:00;;;;;;;3.40;2.50;;;;;;;15.05;100.00;97203.94;5039206;28;20210;-76
2022/07/09 05:04:29;;;;;;;3.90;2.80;;;;;;;15.05;100.00;97203.94;5031105;28;20207;-75
2022/07/09 05:06:57;;;;;;;3.07;2.50;;;;;;;15.03;100.00;97208.78;5035491;28;20221;-76
2022/07/09 05:09:24;;;;;;;4.03;2.60;;;;;;;14.94;100.00;97212.09;5035799;28;20217;-76
2022/07/09 05:11:51;;;;;;;3.50;2.43;;;;;;;14.94;100.00;97198.50;5039082;28;20222;-76
2022/07/09 05:14:18;;;;;;;3.83;2.50;;;;;;;14.94;100.00;97206.66;5036734;28;20209;-76
2022/07/09 05:16:45;;;;;;;3.87;2.93;;;;;;;14.88;100.00;97204.91;5032313;28;20222;-75
2022/07/09 05:19:12;;;;;;;2.97;2.67;;;;;;;14.85;100.00;97206.19;5038664;28;20199;-76
2022/07/09 05:21:41;;;;;;;3.13;2.73;;;;;;;14.73;100.00;97199.91;5035217;28;20298;-75
2022/07/09 05:24:08;;;;;;;2.80;2.60;;;;;;;14.72;100.00;97203.69;5031921;28;20286;-75
2022/07/09 05:26:35;;;;;;;4.00;2.77;;;;;;;14.69;100.00;97204.19;5035198;28;20238;-75
2022/07/09 05:29:03;;;;;;;2.70;2.50;;;;;;;14.63;100.00;97203.22;5027812;28;20206;-76
2022/07/09 05:31:30;;;;;;;2.80;2.50;;;;;;;14.54;100.00;97203.81;5036770;28;20331;-76
2022/07/09 05:33:57;;;;;;;4.13;2.43;;;;;;;14.47;100.00;97203.06;5031903;28;20238;-77
2022/07/09 05:36:24;;;;;;;3.57;2.53;;;;;;;14.36;100.00;97199.25;5035268;28;20627;-76
2022/07/09 05:38:53;;;;;;;3.47;2.90;;;;;;;14.31;100.00;97204.56;5028444;28;20203;-76
2022/07/09 05:41:22;;;;;;;4.37;2.47;;;;;;;14.29;100.00;97202.06;5035684;28;20234;-77
2022/07/09 05:43:49;;;;;;;2.97;2.20;;;;;;;14.36;100.00;97197.38;5035260;28;20199;-77
2022/07/09 05:46:17;;;;;;;3.23;2.50;;;;;;;14.41;100.00;97193.16;5031051;28;20198;-77
2022/07/09 05:48:43;;;;;;;3.97;2.50;;;;;;;14.51;100.00;97194.22;5037513;28;20218;-77
2022/07/09 05:51:11;;;;;;;4.13;2.70;;;;;;;14.60;100.00;97194.72;5032861;28;20222;-77
2022/07/09 05:53:38;;;;;;;2.90;2.60;;;;;;;14.67;100.00;97198.13;5031347;28;20203;-77
2022/07/09 05:56:07;;;;;;;3.70;2.70;;;;;;;14.71;100.00;97205.59;5031263;28;20287;-76
2022/07/09 05:58:34;;;;;;;2.60;2.40;;;;;;;14.77;100.00;97210.09;5034422;28;20199;-77
2022/07/09 06:01:01;;;;;;;2.60;2.40;;;;;;;14.79;100.00;97198.16;5028911;28;20198;-76
2022/07/09 06:03:28;;;;;;;3.00;2.70;;;;;;;14.84;100.00;97199.09;5034016;28;20195;-76
2022/07/09 06:05:55;;;;;;;3.57;2.60;;;;;;;14.84;100.00;97198.25;5027066;28;20265;-77
2022/07/09 06:08:23;;;;;;;3.10;2.40;;;;;;;14.78;100.00;97194.59;5036850;28;20210;-77
2022/07/09 06:10:50;;;;;;;2.73;2.50;;;;;;;14.80;100.00;97197.91;5033314;28;20227;-77
2022/07/09 06:13:18;;;;;;;2.60;2.40;;;;;;;14.74;100.00;97196.13;5031359;28;20214;-77
2022/07/09 06:15:45;;;;;;;2.70;2.50;;;;;;;14.67;100.00;97203.59;5027793;28;20215;-77
2022/07/09 06:18:13;;;;;;;3.00;2.70;;;;;;;14.66;100.00;97193.75;5028233;28;20218;-77
2022/07/09 06:20:40;;;;;;;2.80;2.40;;;;;;;14.68;100.00;97202.53;5030798;28;20203;-77
2022/07/09 06:23:07;;;;;;;2.67;2.47;;;;;;;14.72;100.00;97190.09;5026543;28;20207;-77
2022/07/09 06:25:35;;;;;;;3.87;2.57;;;;;;;14.74;100.00;97205.13;5030395;28;20198;-77
2022/07/09 06:28:02;;;;;;;3.00;2.50;;;;;;;14.80;100.00;97203.34;5031651;28;20230;-76
2022/07/09 06:30:30;;;;;;;2.60;2.33;;;;;;;14.84;100.00;97201.81;5040807;28;20310;-77
2022/07/09 06:32:58;;;;;;;2.70;2.50;;;;;;;14.93;100.00;97199.56;5033194;28;20194;-76
2022/07/09 06:35:25;;;;;;;3.47;2.90;;;;;;;14.95;100.00;97197.44;5039705;28;20268;-77
2022/07/09 06:37:52;;;;;;;3.33;2.80;;;;;;;14.98;100.00;97194.22;5032412;28;20221;-77
2022/07/09 06:40:19;;;;;;;4.00;2.50;;;;;;;14.98;100.00;97197.78;5036600;28;20245;-76
2022/07/09 06:42:46;;;;;;;3.00;2.70;;;;;;;14.99;100.00;97202.16;5038854;28;20202;-77
2022/07/09 06:45:19;;;;;;;4.13;2.83;;;;;;;14.95;100.00;97195.56;5033785;28;20221;-77
2022/07/09 06:47:48;;;;;;;4.37;3.20;;;;;;;14.86;100.00;97202.41;5045809;28;20238;-77
2022/07/09 06:50:16;;;;;;;4.93;2.90;;;;;;;14.81;100.00;97198.72;5035330;28;20230;-76
2022/07/09 06:52:43;;;;;;;6.17;2.90;;;;;;;14.76;100.00;97196.72;5042045;28;20541;-77
2022/07/09 06:55:10;;;;;;;2.57;2.37;;;;;;;14.75;100.00;97197.78;5041313;28;20198;-76
2022/07/09 06:57:38;;;;;;;3.60;2.73;;;;;;;14.79;100.00;97190.84;5032832;28;20226;-76
2022/07/09 07:00:06;;;;;;;3.07;2.50;;;;;;;14.84;100.00;97188.22;5032482;28;20206;-77
2022/07/09 07:02:33;;;;;;;2.40;2.20;;;;;;;14.93;100.00;97196.84;5036377;28;20207;-76
2022/07/09 07:05:01;;;;;;;3.00;2.53;;;;;;;14.96;100.00;97191.78;5039132;28;20207;-76
2022/07/09 07:07:29;;;;;;;3.93;2.57;;;;;;;14.96;100.00;97186.34;5041907;28;20206;-76
2022/07/09 07:09:56;;;;;;;3.10;2.80;;;;;;;15.00;100.00;97189.38;5037599;28;20208;-77
2022/07/09 07:12:23;;;;;;;3.80;2.80;;;;;;;15.04;100.00;97194.13;5029220;28;20275;-77
2022/07/09 07:14:51;;;;;;;2.87;2.30;;;;;;;15.06;100.00;97200.13;5033500;28;20202;-77
2022/07/09 07:17:18;;;;;;;4.60;2.30;;;;;;;14.98;100.00;97189.63;5042043;28;20214;-76
2022/07/09 07:19:45;;;;;;;2.77;2.57;;;;;;;15.07;100.00;97190.09;5043554;28;20206;-76
2022/07/09 07:22:13;;;;;;;2.80;2.60;;;;;;;15.47;100.00;97190.16;5038510;28;20209;-76
2022/07/09 07:24:41;;;;;;;3.13;2.67;;;;;;;15.90;100.00;97189.69;5035438;28;20209;-77
2022/07/09 07:27:08;;;;;;;3.17;2.60;;;;;;;16.45;100.00;97194.47;5042271;28;20238;-77
2022/07/09 07:29:35;;;;;;;6.33;3.50;;;;;;;17.03;100.00;97188.59;5037060;28;20214;-78
2022/07/09 07:32:02;;;;;;;3.40;2.63;;;;;;;17.56;100.00;97185.22;5032249;28;20294;-77
2022/07/09 07:34:30;;;;;;;3.83;2.33;;;;;;;18.13;99.47;97187.53;5035591;28;20214;-79
2022/07/09 07:36:56;;;;;;;3.17;2.57;;;;;;;18.54;94.09;97196.97;5033125;28;20202;-78
2022/07/09 07:39:26;;;;;;;3.07;2.40;;;;;;;18.88;90.67;97187.41;5040086;28;20213;-79
2022/07/09 07:41:53;;;;;;;2.00;1.90;;;;;;;19.01;91.09;97185.31;5033423;28;20202;-79
2022/07/09 07:44:22;;;;;;;4.23;2.40;;;;;;;19.04;87.29;97173.84;5038113;28;20260;-79
2022/07/09 07:46:49;;;;;;;4.37;2.00;;;;;;;19.28;85.63;97175.09;5039462;28;20236;-79
2022/07/09 07:49:17;;;;;;;2.60;2.40;;;;;;;19.20;85.70;97176.41;5038541;28;20206;-79
2022/07/09 07:51:44;;;;;;;2.40;2.20;;;;;;;19.42;82.97;97178.16;5037538;28;20233;-79
2022/07/09 07:54:12;;;;;;;3.03;2.20;;;;;;;19.35;79.19;97172.09;5030179;28;20206;-79
2022/07/09 07:56:41;;;;;;;4.30;3.17;;;;;;;19.81;79.81;97173.16;5035696;28;20284;-79
2022/07/09 07:59:08;;;;;;;5.78;4.00;;;;;;;20.26;76.95;97173.25;5041531;28;20210;-79
2022/07/09 08:01:35;;;;;;;3.53;2.33;;;;;;;20.58;76.31;97167.59;5046238;28;20217;-79
2022/07/09 08:04:02;;;;;;;3.50;3.10;;;;;;;20.77;74.28;97168.66;5039539;28;20291;-78
2022/07/09 08:06:29;;;;;;;3.03;2.30;;;;;;;20.90;74.76;97164.53;5034305;28;20220;-79
2022/07/09 08:08:56;;;;;;;3.75;2.60;;;;;;;21.03;74.46;97155.72;5036618;28;20266;-79
2022/07/09 08:11:23;;;;;;;5.88;2.92;;;;;;;21.36;68.44;97156.22;5030762;28;20233;-79
2022/07/09 08:13:52;;;;;;;2.78;2.17;;;;;;;21.56;69.83;97149.84;5036290;28;20206;-80
2022/07/09 08:16:19;;;;;;;3.80;2.30;;;;;;;21.88;68.27;97148.31;5038714;28;20198;-79
2022/07/09 08:18:47;;;;;;;2.78;2.30;;;;;;;22.17;64.65;97147.63;5033067;28;20289;-80
2022/07/09 08:21:14;;;;;;;3.13;2.20;;;;;;;21.68;66.54;97142.94;5041031;28;20289;-80
2022/07/09 08:23:53;;;;;;;3.08;2.10;;;;;;;21.56;66.50;97147.91;5040377;28;20233;-79
2022/07/09 08:26:21;;;;;;;2.45;2.25;;;;;;;21.38;68.13;97143.03;5032361;28;20265;-78
2022/07/09 08:28:48;;;;;;;2.60;2.40;;;;;;;21.52;66.72;97136.66;5036958;28;20194;-80
2022/07/09 08:31:17;;;;;;;2.38;2.10;;;;;;;21.47;67.17;97130.38;5041625;28;20209;-79
2022/07/09 08:33:46;;;;;;;3.70;2.78;;;;;;;21.56;67.82;97134.19;5035724;28;20218;-78
2022/07/09 08:36:13;;;;;;;2.50;2.30;;;;;;;21.30;69.10;97125.22;5029177;28;20217;-79
2022/07/09 08:38:41;;;;;;;4.22;3.28;;;;;;;21.63;67.10;97123.69;5040842;28;20232;-78
2022/07/09 08:41:08;;;;;;;2.60;2.10;;;;;;;21.31;69.10;97123.28;5036341;28;20198;-78
2022/07/09 08:43:37;;;;;;;4.45;2.50;;;;;;;21.44;69.21;97118.00;5029073;28;20264;-79
2022/07/09 08:46:05;;;;;;;2.33;1.98;;;;;;;21.72;66.96;97122.00;5032173;28;20220;-77
2022/07/09 08:48:35;;;;;;;2.70;2.20;;;;;;;21.93;65.85;97125.47;5039617;28;20207;-78
2022/07/09 08:51:03;;;;;;;4.38;2.10;;;;;;;22.03;66.24;97116.38;5040652;28;20296;-78
2022/07/09 08:53:30;;;;;;;2.88;2.60;;;;;;;22.02;66.21;97112.00;5035436;28;20222;-78
2022/07/09 08:55:57;;;;;;;3.03;2.50;;;;;;;22.10;65.43;97116.88;5034360;28;20248;-79
2022/07/09 08:58:25;;;;;;;3.38;2.60;;;;;;;22.22;65.36;97098.91;5031014;28;20253;-79
2022/07/09 09:00:52;;;;;;;3.45;2.53;;;;;;;22.25;64.33;97106.59;5031039;28;20203;-80
2022/07/09 09:03:19;;;;;;;3.13;2.25;;;;;;;22.38;64.67;97107.03;5031245;28;20205;-79
2022/07/09 09:06:02;;;;;;;2.40;2.20;;;;;;;22.44;61.80;97090.22;5026715;28;20213;-78
2022/07/09 09:08:29;;;;;;;2.97;2.40;;;;;;;22.58;63.65;97102.19;5030984;28;20237;-78
2022/07/09 09:10:56;;;;;;;4.47;2.50;;;;;;;22.65;63.38;97086.16;5030740;28;20225;-78
2022/07/09 09:13:23;;;;;;;3.30;2.20;;;;;;;22.83;63.49;97097.59;5033358;28;20218;-78
2022/07/09 09:15:50;;;;;;;3.50;2.50;;;;;;;22.91;62.67;97088.69;5035943;28;20292;-78
2022/07/09 09:18:17;;;;;;;3.03;2.42;;;;;;;23.07;62.02;97081.91;5032074;28;20326;-79
2022/07/09 09:20:47;;;;;;;2.50;2.30;;;;;;;23.16;61.51;97080.16;5030716;28;20217;-80
2022/07/09 09:23:17;;;;;;;2.55;2.35;;;;;;;23.16;62.53;97087.59;5032720;28;20297;-79
2022/07/09 09:25:45;;;;;;;2.90;2.60;;;;;;;23.12;63.92;97092.88;5031258;28;20202;-80
2022/07/09 09:28:14;;;;;;;4.07;3.20;;;;;;;23.08;63.12;97094.56;5034521;28;20229;-79
2022/07/09 09:30:44;;;;;;;3.53;2.38;;;;;;;23.23;61.93;97086.13;5026497;28;20211;-79
2022/07/09 09:33:14;;;;;;;4.05;2.60;;;;;;;23.20;63.28;97075.72;5036965;28;20226;-80
2022/07/09 09:35:44;;;;;;;3.30;2.40;;;;;;;23.34;64.66;97071.13;5033297;28;20234;-80
2022/07/09 09:38:13;;;;;;;3.25;2.40;;;;;;;23.05;60.60;97070.38;5032470;28;20211;-79
2022/07/09 09:40:47;;;;;;;4.78;2.70;;;;;;;23.15;60.81;97073.00;5032688;28;20203;-79
2022/07/09 09:43:15;;;;;;;3.47;2.10;;;;;;;23.26;59.85;97058.00;5047909;28;20223;-79
2022/07/09 09:45:42;;;;;;;5.28;2.80;;;;;;;23.39;60.58;97068.28;5029672;28;20483;-80
2022/07/09 09:48:10;;;;;;;2.70;2.50;;;;;;;23.54;60.53;97061.00;5033123;28;20202;-80
2022/07/09 09:50:37;;;;;;;3.35;2.72;;;;;;;23.57;60.35;97057.63;5033151;28;20205;-79
2022/07/09 09:53:05;;;;;;;3.28;2.30;;;;;;;23.58;59.95;97059.25;5034813;28;20222;-79
2022/07/09 09:55:34;;;;;;;2.75;2.50;;;;;;;23.54;58.52;97052.72;5030079;28;20206;-79
2022/07/09 09:58:01;;;;;;;4.47;2.80;;;;;;;23.46;59.89;97059.69;5028533;28;20245;-79
2022/07/09 10:00:29;;;;;;;2.50;2.30;;;;;;;23.47;59.61;97049.47;5029464;28;20202;-79
2022/07/09 10:02:56;;;;;;;4.90;2.50;;;;;;;23.50;58.46;97046.97;5049954;28;20226;-80
2022/07/09 10:05:23;;;;;;;4.82;2.38;;;;;;;23.54;56.93;97049.97;5044902;28;20213;-79
2022/07/09 10:07:50;;;;;;;3.88;2.30;;;;;;;23.59;57.70;97042.44;5041427;28;20213;-79
2022/07/09 10:10:19;;;;;;;2.80;2.47;;;;;;;23.71;58.14;97042.84;5045027;28;20308;-79
2022/07/09 10:12:48;;;;;;;4.00;2.22;;;;;;;23.64;57.75;97030.53;5031676;28;20225;-79
2022/07/09 10:15:23;;;;;;;4.20;2.47;;;;;;;23.80;60.64;97042.97;5030981;28;20293;-79
2022/07/09 10:17:50;;;;;;;8.43;2.38;;;;;;;23.87;58.66;97028.81;5044648;28;20210;-80
2022/07/09 10:20:17;;;;;;;3.60;2.50;;;;;;;23.99;58.70;97038.25;5041107;28;20203;-79
2022/07/09 10:22:46;;;;;;;2.60;2.10;;;;;;;24.07;58.15;97040.34;5044689;28;20245;-80
2022/07/09 10:25:29;;;;;;;3.75;2.45;;;;;;;24.11;58.00;97033.13;5033594;28;20201;-79
2022/07/09 10:27:57;;;;;;;2.45;2.20;;;;;;;24.14;56.85;97034.47;5030812;28;20232;-80
2022/07/09 10:30:26;;;;;;;3.20;2.33;;;;;;;24.07;56.73;97018.25;5043357;28;20210;-79
2022/07/09 10:33:05;;;;;;;2.60;2.38;;;;;;;24.17;56.92;97021.97;5030363;28;20227;-80
2022/07/09 10:35:40;;;;;;;3.53;2.33;;;;;;;24.29;55.17;97014.91;5030784;28;20238;-79
2022/07/09 10:38:08;;;;;;;2.97;2.40;;;;;;;24.40;52.80;97010.88;5030265;28;20214;-79
2022/07/09 10:40:40;;;;;;;3.88;2.58;;;;;;;24.48;53.95;97012.94;5035184;28;20211;-80
2022/07/09 10:43:09;;;;;;;3.08;2.50;;;;;;;24.58;52.40;97017.47;5036395;28;20210;-79
2022/07/09 10:45:40;;;;;;;2.45;2.28;;;;;;;24.54;52.96;97021.94;5029221;28;20210;-79
2022/07/09 10:48:10;;;;;;;3.13;2.47;;;;;;;24.58;53.08;97006.41;5040266;28;20272;-79
2022/07/09 10:50:39;;;;;;;3.00;2.33;;;;;;;24.63;53.05;97008.25;5037640;28;20215;-79
2022/07/09 10:53:06;;;;;;;3.08;2.45;;;;;;;24.54;54.04;97008.13;5035239;28;20232;-79
2022/07/09 10:55:34;;;;;;;3.10;2.70;;;;;;;24.59;56.40;97013.53;5032816;28;20203;-79
2022/07/09 10:58:07;;;;;;;3.08;2.50;;;;;;;24.41;56.50;97014.44;5034582;28;20207;-79
2022/07/09 11:00:36;;;;;;;2.75;2.55;;;;;;;24.25;58.12;97005.59;5032012;28;20269;-79
2022/07/09 11:03:05;;;;;;;3.53;2.53;;;;;;;24.05;58.89;97003.97;5032632;28;20206;-79
2022/07/09 11:05:34;;;;;;;2.92;2.63;;;;;;;24.05;58.62;97012.25;5039589;28;20231;-79
2022/07/09 11:08:04;;;;;;;2.65;2.22;;;;;;;24.04;57.55;97007.84;5033234;28;20202;-79
2022/07/09 11:10:32;;;;;;;3.42;2.40;;;;;;;24.33;58.73;97001.34;5032194;28;20226;-79
2022/07/09 11:13:01;;;;;;;3.92;2.40;;;;;;;24.46;57.68;96997.78;5042597;28;20229;-79
2022/07/09 11:15:29;;;;;;;3.22;2.60;;;;;;;24.41;58.35;97004.19;5042827;28;20211;-79
2022/07/09 11:17:59;;;;;;;3.00;2.50;;;;;;;24.36;57.89;96998.78;5035725;28;20207;-79
2022/07/09 11:20:27;;;;;;;3.05;2.58;;;;;;;24.30;58.84;97004.69;5035574;28;20306;-79
2022/07/09 11:22:56;;;;;;;3.30;2.45;;;;;;;24.31;57.45;96990.59;5038104;28;20222;-79
2022/07/09 11:25:25;;;;;;;3.15;2.25;;;;;;;24.43;56.14;96992.84;5033794;28;20215;-79
2022/07/09 11:27:52;;;;;;;3.63;2.53;;;;;;;24.73;55.93;96980.44;5036629;28;20242;-78
2022/07/09 11:30:19;;;;;;;4.22;2.72;;;;;;;24.97;53.58;96983.03;5043016;28;20222;-79
2022/07/09 11:32:47;;;;;;;4.40;2.20;;;;;;;25.04;52.18;96975.16;5031415;28;20233;-78